createdAt,value
2023-01-26T00:01:44.711Z,33.42
2023-01-26T00:07:06.586Z,32.42
2023-01-26T00:12:28.443Z,31.27
2023-01-26T00:17:50.293Z,32.03
2023-01-26T00:23:12.154Z,32.08
2023-01-26T00:28:34.388Z,34.05
2023-01-26T00:33:57.159Z,35.05
2023-01-26T00:39:19.102Z,35.03
2023-01-26T00:44:42.906Z,33.75
2023-01-26T00:50:05.498Z,34.92
2023-01-26T00:55:27.438Z,32.63
2023-01-26T01:00:49.391Z,34.90
2023-01-26T01:06:11.318Z,34.88
2023-01-26T01:11:33.188Z,33.10
2023-01-26T01:16:55.115Z,35.03
2023-01-26T01:22:17.118Z,33.63
2023-01-26T01:27:38.956Z,36.95
2023-01-26T01:33:00.861Z,34.83
2023-01-26T01:38:22.812Z,35.50
2023-01-26T01:43:44.972Z,32.33
2023-01-26T01:49:20.682Z,34.28
2023-01-26T01:54:51.798Z,34.90
2023-01-26T02:00:16.310Z,34.67
2023-01-26T02:05:59.907Z,36.10
2023-01-26T02:11:30.714Z,36.15
2023-01-26T02:16:52.594Z,35.90
2023-01-26T02:22:35.783Z,35.67
2023-01-26T02:27:57.637Z,35.25
2023-01-26T02:33:25.436Z,34.75
2023-01-26T02:39:05.840Z,35.22
2023-01-26T02:44:29.224Z,34.50
2023-01-26T02:49:51.073Z,34.10
2023-01-26T02:55:12.950Z,32.47
2023-01-26T03:00:37.210Z,34.78
2023-01-26T03:05:59.221Z,34.03
2023-01-26T03:11:21.123Z,32.47
2023-01-26T03:16:43.650Z,35.92
2023-01-26T03:22:05.738Z,33.95
2023-01-26T03:27:28.326Z,35.90
2023-01-26T03:32:50.463Z,32.25
2023-01-26T03:38:12.733Z,33.00
2023-01-26T03:43:34.993Z,31.73
2023-01-26T03:48:56.895Z,32.45
2023-01-26T03:54:18.823Z,31.98
2023-01-26T03:59:40.676Z,33.92
2023-01-26T04:05:02.881Z,31.42
2023-01-26T04:10:25.557Z,32.53
2023-01-26T04:15:48.370Z,32.55
2023-01-26T04:21:10.247Z,33.00
2023-01-26T04:26:32.338Z,32.67
2023-01-26T04:31:54.233Z,31.38
2023-01-26T04:37:16.147Z,31.40
2023-01-26T04:42:38.092Z,32.55
2023-01-26T04:47:59.979Z,31.25
2023-01-26T04:53:21.895Z,30.33
2023-01-26T04:58:43.838Z,31.20
2023-01-26T05:04:06.563Z,30.90
2023-01-26T05:09:28.536Z,29.67
2023-01-26T05:14:50.465Z,30.42
2023-01-26T05:20:12.859Z,27.83
2023-01-26T05:25:34.823Z,28.42
2023-01-26T05:30:56.813Z,31.70
2023-01-26T05:36:18.723Z,32.22
2023-01-26T05:41:40.583Z,33.25
2023-01-26T05:47:02.418Z,32.30
2023-01-26T05:52:24.245Z,31.73
2023-01-26T05:57:46.244Z,29.60
2023-01-26T06:03:08.149Z,31.13
2023-01-26T06:08:30.052Z,33.10
2023-01-26T06:13:51.943Z,31.63
2023-01-26T06:19:13.846Z,30.50
2023-01-26T06:24:35.740Z,33.75
2023-01-26T06:29:57.637Z,32.67
2023-01-26T06:35:19.564Z,29.63
2023-01-26T06:40:41.396Z,31.05
2023-01-26T06:46:05.041Z,31.67
2023-01-26T06:51:33.037Z,33.45
2023-01-26T06:56:54.866Z,31.15
2023-01-26T07:02:19.270Z,31.30
2023-01-26T07:07:41.122Z,30.08
2023-01-26T07:13:06.418Z,30.67
2023-01-26T07:18:28.500Z,28.90
2023-01-26T07:23:50.965Z,28.08
2023-01-26T07:29:12.854Z,26.52
2023-01-26T07:34:34.687Z,26.70
2023-01-26T07:39:56.668Z,24.35
2023-01-26T07:45:18.535Z,24.27
2023-01-26T07:50:40.374Z,24.52
2023-01-26T07:56:13.553Z,23.83
2023-01-26T08:01:35.373Z,22.60
2023-01-26T08:06:57.224Z,21.63
2023-01-26T08:12:19.150Z,21.48
2023-01-26T08:17:40.997Z,20.10
2023-01-26T08:23:02.824Z,19.83
2023-01-26T08:28:24.947Z,17.83
2023-01-26T08:33:48.860Z,17.25
2023-01-26T08:39:10.728Z,17.33
2023-01-26T08:44:32.572Z,16.25
2023-01-26T08:49:54.417Z,16.02
2023-01-26T08:55:16.345Z,15.73
2023-01-26T09:00:38.208Z,16.17
2023-01-26T09:06:01.129Z,15.15
2023-01-26T09:11:22.979Z,14.25
2023-01-26T09:16:44.932Z,15.25
2023-01-26T09:22:06.759Z,14.15
2023-01-26T09:27:28.728Z,14.73
2023-01-26T09:32:51.402Z,15.18
2023-01-26T09:38:13.281Z,14.90
2023-01-26T09:43:40.309Z,13.63
2023-01-26T09:49:17.458Z,14.13
2023-01-26T09:55:02.457Z,13.02
2023-01-26T10:00:26.999Z,15.98
2023-01-26T10:05:59.158Z,13.00
2023-01-26T10:11:28.198Z,13.57
2023-01-26T10:16:53.726Z,13.18
2023-01-26T10:22:30.753Z,12.63
2023-01-26T10:27:52.868Z,11.60
2023-01-26T10:33:18.983Z,12.98
2023-01-26T10:38:42.565Z,12.43
2023-01-26T10:44:20.541Z,12.70
2023-01-26T10:49:42.379Z,11.55
2023-01-26T10:55:13.322Z,11.98
2023-01-26T11:00:35.403Z,12.27
2023-01-26T11:06:12.183Z,11.55
2023-01-26T11:11:34.161Z,12.57
2023-01-26T11:17:08.998Z,11.80
2023-01-26T11:22:33.875Z,12.20
2023-01-26T11:28:22.549Z,11.63
2023-01-26T11:33:56.470Z,11.57
2023-01-26T11:39:36.280Z,12.18
2023-01-26T11:45:16.492Z,11.93
2023-01-26T11:50:45.715Z,10.95
2023-01-26T11:56:33.298Z,11.82
2023-01-26T12:02:14.508Z,12.45
2023-01-26T12:07:55.032Z,13.30
2023-01-26T12:13:36.105Z,12.55
2023-01-26T12:19:24.943Z,13.52
2023-01-26T12:25:21.244Z,12.55
2023-01-26T12:30:49.926Z,11.82
2023-01-26T12:36:45.122Z,13.68
2023-01-26T12:42:24.002Z,12.97
2023-01-26T12:47:51.789Z,12.88
2023-01-26T12:53:20.824Z,12.50
2023-01-26T12:58:45.827Z,13.88
2023-01-26T13:04:16.740Z,14.43
2023-01-26T13:09:38.658Z,15.85
2023-01-26T13:15:01.150Z,14.60
2023-01-26T13:20:23.056Z,13.50
2023-01-26T13:26:10.140Z,14.95
2023-01-26T13:31:34.196Z,14.48
2023-01-26T13:37:05.271Z,14.90
2023-01-26T13:42:37.728Z,15.23
2023-01-26T13:48:05.583Z,16.02
2023-01-26T13:53:35.131Z,15.63
2023-01-26T13:59:15.523Z,16.45
2023-01-26T14:04:37.365Z,15.13
2023-01-26T14:10:02.114Z,16.67
2023-01-26T14:15:32.580Z,16.50
2023-01-26T14:21:06.220Z,16.38
2023-01-26T14:26:32.519Z,17.17
2023-01-26T14:31:56.863Z,16.83
2023-01-26T14:37:18.972Z,14.32
2023-01-26T14:42:41.292Z,16.00
2023-01-26T14:48:09.087Z,14.95
2023-01-26T15:00:01.376Z,16.13
2023-01-26T15:05:33.195Z,15.00
2023-01-26T15:10:59.291Z,14.02
2023-01-26T15:16:24.367Z,15.35
2023-01-26T15:21:46.990Z,15.13
2023-01-26T15:27:12.298Z,16.15
2023-01-26T15:32:40.155Z,15.65
2023-01-26T15:38:04.521Z,13.50
2023-01-26T15:43:26.557Z,15.55
2023-01-26T15:48:48.789Z,16.25
2023-01-26T15:54:11.422Z,16.50
2023-01-26T15:59:33.315Z,15.18
2023-01-26T16:04:55.121Z,15.73
2023-01-26T16:10:17.387Z,15.45
2023-01-26T16:15:41.708Z,15.57
2023-01-26T16:21:15.572Z,14.25
2023-01-26T16:26:37.783Z,14.38
2023-01-26T16:31:59.986Z,13.18
2023-01-26T16:37:21.842Z,14.68
2023-01-26T16:42:47.497Z,13.63
2023-01-26T16:48:15.041Z,12.57
2023-01-26T16:53:36.929Z,13.18
2023-01-26T16:58:58.967Z,14.52
2023-01-26T17:04:20.783Z,14.98
2023-01-26T17:09:42.616Z,15.05
2023-01-26T17:15:06.205Z,16.10
2023-01-26T17:20:28.058Z,14.07
2023-01-26T17:25:56.973Z,14.18
2023-01-26T17:31:21.347Z,16.13
2023-01-26T17:36:45.793Z,14.25
2023-01-26T17:42:07.953Z,14.43
2023-01-26T17:47:32.843Z,15.00
2023-01-26T17:52:54.679Z,14.60
2023-01-26T17:58:16.560Z,14.18
2023-01-26T18:03:42.363Z,15.68
2023-01-26T18:09:05.505Z,16.03
2023-01-26T18:14:27.330Z,16.70
2023-01-26T18:19:49.176Z,16.40
2023-01-26T18:25:11.381Z,16.45
2023-01-26T18:30:33.487Z,16.90
2023-01-26T18:36:03.554Z,13.68
2023-01-26T18:41:27.943Z,15.43
2023-01-26T18:46:49.858Z,15.15
2023-01-26T18:52:11.729Z,14.85
2023-01-26T18:57:33.621Z,17.10
2023-01-26T19:02:55.534Z,16.30
2023-01-26T19:08:17.492Z,15.35
2023-01-26T19:13:39.439Z,17.80
2023-01-26T19:19:01.292Z,16.08
2023-01-26T19:24:23.394Z,20.27
2023-01-26T19:29:45.238Z,16.02
2023-01-26T19:35:07.454Z,17.10
2023-01-26T19:40:29.331Z,14.82
2023-01-26T19:45:53.506Z,15.88
2023-01-26T19:51:18.690Z,16.75
2023-01-26T19:56:41.337Z,16.35
2023-01-26T20:02:04.333Z,17.50
2023-01-26T20:07:26.229Z,16.88
2023-01-26T20:12:48.072Z,16.70
2023-01-26T20:18:10.557Z,17.48
2023-01-26T20:23:32.877Z,16.83
2023-01-26T20:28:57.939Z,16.40
2023-01-26T20:34:20.194Z,17.88
2023-01-26T20:39:42.117Z,16.42
2023-01-26T20:45:04.107Z,16.30
2023-01-26T20:50:26.001Z,14.15
2023-01-26T20:55:47.999Z,15.40
2023-01-26T21:01:13.419Z,15.98
2023-01-26T21:06:36.048Z,16.58
2023-01-26T21:11:57.847Z,18.90
2023-01-26T21:17:19.688Z,17.20
2023-01-26T21:22:41.616Z,17.92
2023-01-26T21:28:03.473Z,17.88
2023-01-26T21:33:25.280Z,19.42
2023-01-26T21:38:48.417Z,20.98
2023-01-26T21:44:12.439Z,20.05
2023-01-26T21:49:34.419Z,19.25
2023-01-26T21:54:56.268Z,19.08
2023-01-26T22:00:18.698Z,20.52
2023-01-26T22:05:40.582Z,18.33
2023-01-26T22:11:02.488Z,21.42
2023-01-26T22:16:24.737Z,20.25
2023-01-26T22:21:46.888Z,20.80
2023-01-26T22:27:08.726Z,17.85
2023-01-26T22:32:30.765Z,17.70
2023-01-26T22:37:54.065Z,18.02
2023-01-26T22:43:17.222Z,17.13
2023-01-26T22:48:39.099Z,15.05
2023-01-26T22:54:01.217Z,18.58
2023-01-26T22:59:23.101Z,16.70
2023-01-26T23:04:44.998Z,18.23
2023-01-26T23:10:07.470Z,17.75
2023-01-26T23:15:29.755Z,19.50
2023-01-26T23:20:51.929Z,16.92
2023-01-26T23:26:13.869Z,17.27
2023-01-26T23:31:35.826Z,16.55
2023-01-26T23:36:57.770Z,16.52
2023-01-26T23:42:19.618Z,17.88
2023-01-26T23:47:41.682Z,17.98
2023-01-26T23:53:03.620Z,17.58
2023-01-26T23:58:25.605Z,19.48
